TAFOR
Diposting tanggal: 10 Juni 2019

Pukul :

Isi :

TAF WAGI 160500Z 1606/1618 11008KT 9999 SCT012 BECMG 1609/1611 11004KT 7000=